Etusivu
METAR-TAF:

METAR-TAF

Lentoasemat :

Rooma-Fiumicino, Italia

Leonardo da Vincin kansainvälinen lentoasema

Leveyspiiri: 41-48N, Pituuspiiri: 012-14E, korkeus merenpinnasta: 2 m

Tämänhetkinen sää

Tämä raportti tehtiin 37 minuuttia sitten, kello 16.20 UTC
Tuuli 8 kn etelästä
Lämpötila 28°C
Kosteus 74%
Ilmanpaine 1014 hPa
Näkyvyys 10 km tai enemmän
Muutamia pilviä 800 ft:n korkeudessa

METAR: LIRF 191620Z 19008KT 9999 FEW008 28/23 Q1014 NOSIG

Aika: 18:57 (16:57 UTC)

Sääennuste

Tämä raportti tehtiin 5 tuntia ja 57 minuuttia sitten, kello 11.00 UTC
Ennuste voimassa 19. päivästä klo 12 UTC - 20. päivään klo 18 UTC
Tuuli 12 kn lounaasta
Näkyvyys 10 km tai enemmän
ei pilviä alle 1500 m:ssä eikä cumulonimbus-pilviä
Tulossa
19. päivästä klo 18 UTC - 19. päivään klo 20 UTC
Tuuli 7 kn etelästä/kaakosta
Tulossa
20. päivästä klo 08 UTC - 20. päivään klo 10 UTC
Tuuli 12 kn lounaasta

TAF: LIRF 191100Z 1912/2018 23012KT CAVOK BECMG 1918/1920 16007KT BECMG 2008/2010 22012KT

Säähavainnot ja -ennusteet yli 4000 lentoasemalta (METAR- ja TAF-raportit).

Käytössä olevat sääasemat on merkitty karttaan keltaisilla ja punaisilla pisteillä.

Aseta hiiri pisteen päälle nähdäksesi sääaseman nimen.

Klikkaa sitten nähdäksesi säähavainnot ja -ennusteet.

Kartan vaihtaminen: klikkaa mustalla rastilla varustettuja vihreitä pisteitä, niin voit zoomata sisään; viivalla varustettua vihreää pistettä, niin voit zoomata ulos tai vihreitä nuolia, niin pääset viereisille kartoille.


METAR-TAF: